Time;durP1;ratioP1;P1;durP2;ratioP2;P2;SDS_P1;SDS_P2;PMS_P1;PMS_P2;Temp;Humidity;BMP_temperature;BMP_pressure;BME280_temperature;BME280_humidity;BME280_pressure;Samples;Min_cycle;Max_cycle;Signal;HPM_P1;HPM_P2
2023/06/02 00:01:51;;;;;;;;;11.00;8.00;;;;;21.30;32.93;101353.91;4970781;28;45378;-62
2023/06/02 00:04:17;;;;;;;;;7.50;7.00;;;;;21.24;33.35;101358.59;4970062;28;45402;-62
2023/06/02 00:06:45;;;;;;;;;7.25;6.25;;;;;21.19;33.38;101362.44;4966502;28;45178;-63
2023/06/02 00:09:11;;;;;;;;;7.50;6.00;;;;;21.14;33.58;101368.00;4972578;28;45918;-63
2023/06/02 00:11:36;;;;;;;;;12.00;7.75;;;;;21.09;32.98;101359.34;4985715;28;45396;-63
2023/06/02 00:14:03;;;;;;;;;8.50;7.50;;;;;21.04;33.63;101364.03;4978565;28;45575;-63
2023/06/02 00:16:29;;;;;;;;;9.75;8.75;;;;;20.96;33.03;101359.06;4982509;28;45500;-63
2023/06/02 00:18:56;;;;;;;;;9.25;7.75;;;;;20.91;33.72;101361.09;4982720;28;45282;-63
2023/06/02 00:21:22;;;;;;;;;9.50;8.00;;;;;20.85;33.92;101354.22;4982828;28;45235;-63
2023/06/02 00:23:48;;;;;;;;;8.50;8.00;;;;;20.82;33.41;101356.19;4982983;28;45152;-63
2023/06/02 00:26:13;;;;;;;;;7.50;7.50;;;;;20.76;33.45;101355.53;4982532;28;45516;-63
2023/06/02 00:28:39;;;;;;;;;10.50;9.00;;;;;20.69;33.89;101354.09;4982871;28;46209;-63
2023/06/02 00:31:04;;;;;;;;;7.00;7.00;;;;;20.67;34.13;101363.13;4982224;28;45421;-63
2023/06/02 00:33:29;;;;;;;;;12.00;10.50;;;;;20.59;33.96;101352.75;4982745;28;45329;-63
2023/06/02 00:35:55;;;;;;;;;10.25;9.25;;;;;20.51;34.18;101357.59;4982521;28;45380;-63
2023/06/02 00:38:20;;;;;;;;;13.75;11.25;;;;;20.45;33.83;101361.41;4987960;28;46209;-63
2023/06/02 00:40:46;;;;;;;;;12.25;10.25;;;;;20.40;34.40;101361.66;4962819;28;45425;-63
2023/06/02 00:43:11;;;;;;;;;14.50;9.50;;;;;20.32;34.39;101354.94;4963270;28;45577;-63
2023/06/02 00:45:37;;;;;;;;;9.25;9.25;;;;;20.26;34.02;101358.72;4977552;28;45334;-63
2023/06/02 00:48:03;;;;;;;;;12.50;10.75;;;;;20.22;34.18;101366.00;4962774;28;45308;-63
2023/06/02 00:50:30;;;;;;;;;6.25;6.25;;;;;20.18;34.24;101363.56;4962723;28;45427;-63
2023/06/02 00:52:59;;;;;;;;;7.50;7.00;;;;;20.16;34.22;101368.06;4963002;28;45227;-63
2023/06/02 00:55:28;;;;;;;;;12.25;10.00;;;;;20.11;34.33;101370.94;4962434;28;45570;-63
2023/06/02 00:57:56;;;;;;;;;12.50;9.50;;;;;20.07;34.67;101364.03;4961547;28;46041;-63
2023/06/02 01:00:23;;;;;;;;;10.00;9.00;;;;;20.03;34.96;101359.75;4962231;28;45179;-63
2023/06/02 01:02:49;;;;;;;;;10.25;8.25;;;;;19.96;35.00;101353.81;4966200;28;45175;-63
2023/06/02 01:05:15;;;;;;;;;16.00;12.00;;;;;19.86;34.75;101361.38;4979497;28;45558;-63
2023/06/02 01:07:46;;;;;;;;;6.00;5.00;;;;;19.81;35.00;101363.34;4962492;28;46021;-63
2023/06/02 01:10:15;;;;;;;;;15.50;13.00;;;;;19.74;35.45;101357.38;4962271;28;45330;-63
2023/06/02 01:12:42;;;;;;;;;17.25;12.50;;;;;19.70;35.40;101362.91;4962600;28;45314;-63
2023/06/02 01:15:08;;;;;;;;;12.00;11.75;;;;;19.63;35.15;101360.53;4961869;28;45538;-63
2023/06/02 01:17:35;;;;;;;;;12.00;10.50;;;;;19.56;35.40;101361.72;4962306;28;45326;-63
2023/06/02 01:20:04;;;;;;;;;15.75;12.50;;;;;19.50;35.35;101364.63;4961059;28;45934;-63
2023/06/02 01:22:53;;;;;;;;;12.25;11.25;;;;;19.43;35.20;101364.03;4961269;28;45348;-63
2023/06/02 01:25:22;;;;;;;;;17.50;14.00;;;;;19.35;35.35;101357.28;4953734;28;45624;-63
2023/06/02 01:27:47;;;;;;;;;17.50;14.75;;;;;19.29;35.25;101356.56;4961914;28;45372;-63
2023/06/02 01:30:13;;;;;;;;;16.75;15.25;;;;;19.27;35.71;101362.91;4960558;28;45271;-63
2023/06/02 01:32:46;;;;;;;;;12.25;12.00;;;;;19.23;35.57;101364.84;4960989;28;45251;-63
2023/06/02 01:35:13;;;;;;;;;13.25;12.00;;;;;19.18;35.50;101374.78;4961117;28;45266;-63
2023/06/02 01:37:56;;;;;;;;;17.25;15.25;;;;;19.09;35.66;101365.38;4985128;28;47313;-63
2023/06/02 01:40:24;;;;;;;;;16.25;15.00;;;;;19.05;35.51;101369.09;4960946;28;45267;-63
2023/06/02 01:42:51;;;;;;;;;17.50;15.50;;;;;19.03;35.67;101368.31;4962015;28;45342;-63
2023/06/02 01:45:18;;;;;;;;;13.25;12.50;;;;;18.98;35.65;101370.25;4961739;28;45393;-63
2023/06/02 01:47:43;;;;;;;;;18.50;14.75;;;;;18.94;35.95;101366.00;4961583;28;46244;-63
2023/06/02 01:50:09;;;;;;;;;18.50;14.25;;;;;18.91;35.97;101369.66;4976485;28;45762;-64
2023/06/02 01:52:34;;;;;;;;;17.50;16.00;;;;;18.85;35.91;101367.19;4960528;28;45406;-64
2023/06/02 01:55:00;;;;;;;;;18.75;15.00;;;;;18.85;36.11;101372.50;4961944;28;46009;-64
2023/06/02 01:57:27;;;;;;;;;17.00;14.75;;;;;18.80;36.28;101363.84;4961599;28;47245;-64
2023/06/02 01:59:52;;;;;;;;;12.00;12.00;;;;;18.74;36.48;101370.28;4961618;28;45242;-64
2023/06/02 02:02:18;;;;;;;;;13.50;13.50;;;;;18.71;36.24;101367.72;4961660;28;45248;-66
2023/06/02 02:04:43;;;;;;;;;16.75;15.00;;;;;18.69;36.44;101369.56;4980501;28;45208;-64
2023/06/02 02:07:11;;;;;;;;;18.00;17.00;;;;;18.62;36.15;101360.97;4963993;28;46097;-64
2023/06/02 02:09:37;;;;;;;;;16.00;15.00;;;;;18.59;36.35;101363.75;4960445;28;45893;-64
2023/06/02 02:12:02;;;;;;;;;19.00;17.50;;;;;18.55;36.50;101372.75;4961489;28;45394;-64
2023/06/02 02:14:28;;;;;;;;;18.25;17.50;;;;;18.51;36.59;101368.47;4961465;28;45375;-64
2023/06/02 02:16:54;;;;;;;;;17.00;15.25;;;;;18.49;36.35;101373.88;4961281;28;45306;-64
2023/06/02 02:19:22;;;;;;;;;22.00;18.00;;;;;18.45;36.57;101374.03;4961556;28;45263;-64
2023/06/02 02:21:47;;;;;;;;;23.75;18.50;;;;;18.40;36.68;101376.88;4961481;28;45175;-64
2023/06/02 02:24:13;;;;;;;;;22.00;18.00;;;;;18.40;36.58;101376.00;4960122;28;45435;-64
2023/06/02 02:26:39;;;;;;;;;19.50;17.00;;;;;18.36;36.61;101377.91;4961221;28;47046;-64
2023/06/02 02:29:04;;;;;;;;;21.50;21.50;;;;;18.35;36.71;101381.47;4961092;28;45376;-64
2023/06/02 02:31:30;;;;;;;;;21.00;18.00;;;;;18.31;36.78;101385.19;4961414;28;45306;-64
2023/06/02 02:33:55;;;;;;;;;17.50;14.00;;;;;18.28;36.58;101386.16;4960623;28;45577;-64
2023/06/02 02:36:21;;;;;;;;;15.75;15.50;;;;;18.27;36.65;101380.91;4967395;28;46118;-64
2023/06/02 02:38:49;;;;;;;;;21.00;18.00;;;;;18.24;36.89;101383.66;4979890;28;45469;-64
2023/06/02 02:41:15;;;;;;;;;26.25;21.25;;;;;18.18;37.10;101382.09;4961199;28;45264;-64
2023/06/02 02:43:40;;;;;;;;;19.75;17.75;;;;;18.09;36.99;101375.31;4975907;28;45169;-64
2023/06/02 02:46:05;;;;;;;;;22.00;18.25;;;;;18.11;37.00;101377.94;4960890;28;45426;-64
2023/06/02 02:48:32;;;;;;;;;19.75;18.50;;;;;18.09;36.94;101385.97;4961200;28;45236;-64
2023/06/02 02:50:58;;;;;;;;;21.50;19.50;;;;;18.06;37.52;101394.03;4961110;28;45259;-64
2023/06/02 02:53:24;;;;;;;;;22.75;18.25;;;;;18.00;37.03;101388.97;4975932;28;45612;-64
2023/06/02 02:55:51;;;;;;;;;22.75;20.50;;;;;17.98;37.08;101391.66;4960691;28;45318;-64
2023/06/02 02:58:18;;;;;;;;;22.50;17.75;;;;;17.95;37.19;101389.13;4960988;28;45449;-64
2023/06/02 03:00:45;;;;;;;;;23.00;23.00;;;;;17.94;37.14;101390.03;4960759;28;45295;-64
2023/06/02 03:03:11;;;;;;;;;21.00;18.00;;;;;17.92;37.41;101390.97;4967332;28;45185;-64
2023/06/02 03:05:37;;;;;;;;;19.50;17.75;;;;;17.90;37.09;101395.47;4975937;28;45522;-64
2023/06/02 03:08:03;;;;;;;;;17.75;17.75;;;;;17.87;37.21;101392.00;4960879;28;45182;-64
2023/06/02 03:10:29;;;;;;;;;25.25;23.00;;;;;17.83;37.22;101386.84;4960744;28;45326;-64
2023/06/02 03:12:54;;;;;;;;;18.50;17.50;;;;;17.81;37.24;101392.22;4959467;28;45527;-64
2023/06/02 03:15:20;;;;;;;;;21.50;19.50;;;;;17.76;37.59;101391.50;4960253;28;45939;-64
2023/06/02 03:17:45;;;;;;;;;19.75;15.75;;;;;17.74;37.67;101387.16;4960902;28;45263;-64
2023/06/02 03:20:11;;;;;;;;;25.50;21.75;;;;;17.74;37.53;101392.47;4962083;28;45326;-64
2023/06/02 03:22:37;;;;;;;;;23.75;19.50;;;;;17.72;37.52;101395.16;4964239;28;45450;-64
2023/06/02 03:25:02;;;;;;;;;21.50;19.00;;;;;17.71;37.40;101402.28;4978803;28;47262;-64
2023/06/02 03:27:28;;;;;;;;;24.00;19.25;;;;;17.69;37.41;101398.78;4964207;28;45394;-64
2023/06/02 03:29:53;;;;;;;;;20.00;17.75;;;;;17.65;37.49;101397.16;4963792;28;45373;-64
2023/06/02 03:32:19;;;;;;;;;20.00;18.00;;;;;17.66;37.41;101400.69;4964297;28;45234;-64
2023/06/02 03:34:44;;;;;;;;;20.25;18.25;;;;;17.64;37.48;101402.53;4963600;28;45862;-64
2023/06/02 03:37:11;;;;;;;;;24.25;22.50;;;;;17.62;37.09;101402.59;4983450;28;45219;-65
2023/06/02 03:39:37;;;;;;;;;21.00;19.75;;;;;17.60;37.45;101401.78;4968686;28;45297;-64
2023/06/02 03:42:02;;;;;;;;;22.25;22.25;;;;;17.55;37.80;101399.25;4963745;28;45378;-64
2023/06/02 03:44:28;;;;;;;;;26.75;23.00;;;;;17.53;37.73;101401.13;4963405;28;45537;-64
2023/06/02 03:46:53;;;;;;;;;21.00;20.25;;;;;17.51;37.73;101396.78;4963873;28;45263;-64
2023/06/02 03:49:18;;;;;;;;;27.00;22.00;;;;;17.47;37.86;101392.47;4963761;28;45296;-64
2023/06/02 03:51:46;;;;;;;;;17.00;16.50;;;;;17.42;37.96;101392.63;4963955;28;45467;-64
2023/06/02 03:54:12;;;;;;;;;23.00;20.75;;;;;17.42;37.91;101400.59;4963437;28;45426;-64
2023/06/02 03:56:37;;;;;;;;;26.50;21.25;;;;;17.36;37.98;101400.78;4963533;28;45365;-64
2023/06/02 03:59:02;;;;;;;;;25.50;23.00;;;;;17.36;37.50;101400.78;4963426;28;45339;-64
2023/06/02 04:01:28;;;;;;;;;25.75;19.25;;;;;17.33;37.96;101404.41;4963651;28;45293;-65
2023/06/02 04:03:54;;;;;;;;;27.75;21.50;;;;;17.31;38.00;101405.38;4986955;28;45403;-64
2023/06/02 04:06:19;;;;;;;;;28.50;22.75;;;;;17.29;38.22;101409.88;4973564;28;45445;-65
2023/06/02 04:08:46;;;;;;;;;26.50;22.25;;;;;17.27;38.14;101417.00;4982950;28;45274;-65
2023/06/02 04:11:11;;;;;;;;;27.25;23.75;;;;;17.24;37.92;101417.13;4982859;28;45187;-65
2023/06/02 04:13:37;;;;;;;;;26.25;24.00;;;;;17.20;38.03;101413.69;4997281;28;46594;-64
2023/06/02 04:16:02;;;;;;;;;24.75;22.50;;;;;17.18;38.30;101419.06;4982702;28;45429;-64
2023/06/02 04:18:30;;;;;;;;;24.25;20.00;;;;;17.16;38.43;101415.56;4982846;28;45172;-64
2023/06/02 04:20:56;;;;;;;;;21.75;21.75;;;;;17.12;38.08;101416.59;4982977;28;45251;-64
2023/06/02 04:23:21;;;;;;;;;24.50;21.75;;;;;17.11;38.23;101416.63;4981173;28;45634;-64
2023/06/02 04:25:47;;;;;;;;;25.50;24.25;;;;;17.08;38.20;101411.41;4982704;28;45311;-64
2023/06/02 04:28:12;;;;;;;;;21.50;21.25;;;;;17.04;38.29;101410.63;4981390;28;45271;-64
2023/06/02 04:30:39;;;;;;;;;29.50;27.00;;;;;17.02;38.19;101410.69;4980909;28;45524;-64
2023/06/02 04:33:04;;;;;;;;;24.75;24.75;;;;;16.99;38.51;101408.13;4982508;28;45327;-64
2023/06/02 04:35:29;;;;;;;;;26.25;22.75;;;;;16.97;38.30;101407.28;4981102;28;45270;-64
2023/06/02 04:37:55;;;;;;;;;26.50;24.00;;;;;16.94;38.59;101403.88;4991162;28;45457;-64
2023/06/02 04:40:20;;;;;;;;;25.50;25.50;;;;;16.94;38.67;101417.13;4962926;28;45489;-64
2023/06/02 04:42:46;;;;;;;;;29.00;25.75;;;;;16.89;39.04;101418.13;4962773;28;47067;-64
2023/06/02 04:45:11;;;;;;;;;29.25;25.75;;;;;16.88;38.68;101418.16;4962716;28;45331;-65
2023/06/02 04:47:40;;;;;;;;;23.50;21.25;;;;;16.87;38.74;101416.44;4962895;28;45232;-64
2023/06/02 04:50:12;;;;;;;;;27.00;22.75;;;;;16.86;38.48;101426.16;4963079;28;45300;-65
2023/06/02 04:52:41;;;;;;;;;26.00;22.50;;;;;16.85;38.63;101420.91;4962474;28;45250;-64
2023/06/02 04:55:08;;;;;;;;;26.00;25.50;;;;;16.87;38.70;101435.00;4961387;28;46421;-64
2023/06/02 04:57:34;;;;;;;;;25.00;24.00;;;;;16.86;38.79;101430.59;4962664;28;45438;-64
2023/06/02 04:59:59;;;;;;;;;28.25;22.75;;;;;16.83;39.05;101431.56;4962619;28;45238;-64
2023/06/02 05:02:25;;;;;;;;;29.25;27.50;;;;;16.78;38.47;101419.34;4962683;28;46245;-64
2023/06/02 05:04:50;;;;;;;;;28.50;27.00;;;;;16.86;38.61;101430.59;4981801;28;45316;-64
2023/06/02 05:07:16;;;;;;;;;24.25;21.75;;;;;16.84;38.50;101429.78;4964466;28;45327;-64
2023/06/02 05:09:41;;;;;;;;;28.75;24.25;;;;;16.87;38.73;101427.03;4962486;28;45252;-64
2023/06/02 05:12:07;;;;;;;;;24.50;23.50;;;;;16.89;38.69;101433.16;4961556;28;45323;-64
2023/06/02 05:14:32;;;;;;;;;30.50;25.25;;;;;16.87;38.60;101435.00;4960386;28;45317;-64
2023/06/02 05:16:58;;;;;;;;;25.50;24.00;;;;;16.86;38.79;101426.16;4962094;28;45456;-64
2023/06/02 05:19:24;;;;;;;;;22.00;22.00;;;;;16.85;38.98;101431.53;4962910;28;49884;-63
2023/06/02 05:21:49;;;;;;;;;28.25;24.50;;;;;16.87;39.05;101432.34;4962154;28;45428;-64
2023/06/02 05:24:15;;;;;;;;;25.75;23.50;;;;;16.87;38.70;101432.34;4977255;28;45255;-64
2023/06/02 05:26:40;;;;;;;;;27.00;23.75;;;;;16.86;38.69;101431.47;4962257;28;45251;-64
2023/06/02 05:29:06;;;;;;;;;29.25;24.50;;;;;16.87;39.00;101430.56;4960741;28;45336;-64
2023/06/02 05:31:31;;;;;;;;;21.50;18.00;;;;;16.88;38.96;101428.78;4976980;28;48563;-64
2023/06/02 05:33:56;;;;;;;;;23.00;20.00;;;;;16.89;38.99;101430.50;4961887;28;48878;-64
2023/06/02 05:36:21;;;;;;;;;19.75;16.25;;;;;16.90;38.81;101433.13;4967269;28;45300;-64
2023/06/02 05:38:47;;;;;;;;;32.00;26.00;;;;;16.90;38.70;101433.13;4980728;28;45653;-64
2023/06/02 05:41:12;;;;;;;;;25.25;22.50;;;;;16.95;38.75;101437.47;4979833;28;47069;-64
2023/06/02 05:43:37;;;;;;;;;19.25;18.75;;;;;16.95;39.05;101437.47;4979066;28;45383;-64
2023/06/02 05:46:03;;;;;;;;;22.25;17.50;;;;;16.98;39.22;101437.34;4979730;28;45646;-64
2023/06/02 05:48:28;;;;;;;;;41.00;34.25;;;;;17.03;38.88;101438.09;4980073;28;45310;-69
2023/06/02 05:50:53;;;;;;;;;27.00;24.00;;;;;17.07;38.94;101439.75;4979834;28;46857;-71
2023/06/02 05:53:19;;;;;;;;;21.25;18.75;;;;;17.12;39.21;101440.47;4981183;28;50615;-71
2023/06/02 05:55:44;;;;;;;;;21.75;18.25;;;;;17.18;39.04;101432.31;4981220;28;45381;-65
2023/06/02 05:58:09;;;;;;;;;19.50;17.50;;;;;17.22;38.86;101439.28;4980126;28;45358;-74
2023/06/02 06:00:35;;;;;;;;;21.50;18.00;;;;;17.26;38.83;101439.16;4980735;28;51330;-72
2023/06/02 06:03:00;;;;;;;;;19.25;17.25;;;;;17.25;38.88;101424.19;4979298;28;45527;-67
2023/06/02 06:05:25;;;;;;;;;21.00;18.25;;;;;17.35;38.82;101442.41;4967232;28;45543;-67
2023/06/02 06:07:51;;;;;;;;;26.00;22.25;;;;;17.38;38.74;101447.66;4977074;28;45560;-63
2023/06/02 06:10:16;;;;;;;;;19.75;17.25;;;;;17.42;38.92;101442.22;4980490;28;46018;-63
2023/06/02 06:12:41;;;;;;;;;22.25;18.50;;;;;17.45;38.89;101443.00;4978978;28;45248;-65
2023/06/02 06:15:07;;;;;;;;;27.50;21.50;;;;;17.49;39.03;101444.63;4977034;28;45589;-64
2023/06/02 06:17:32;;;;;;;;;21.00;19.75;;;;;17.48;39.06;101440.25;4977777;28;45476;-63
2023/06/02 06:19:58;;;;;;;;;21.00;17.25;;;;;17.51;38.66;101436.63;4979484;28;52742;-62
2023/06/02 06:22:23;;;;;;;;;23.75;17.75;;;;;17.48;38.96;101432.28;4971651;28;45368;-62
2023/06/02 06:24:48;;;;;;;;;23.75;20.50;;;;;17.53;38.83;101443.63;4980286;28;45431;-62
2023/06/02 06:27:14;;;;;;;;;22.00;18.50;;;;;17.52;38.88;101444.53;4979670;28;45484;-62
2023/06/02 06:29:39;;;;;;;;;19.00;16.75;;;;;17.52;38.68;101439.22;4979175;28;48188;-62
2023/06/02 06:32:07;;;;;;;;;24.25;22.25;;;;;17.52;38.93;101433.03;4974920;28;45457;-62
2023/06/02 06:34:33;;;;;;;;;23.00;21.25;;;;;17.55;38.61;101439.13;4961294;28;45340;-62
2023/06/02 06:36:59;;;;;;;;;22.50;20.75;;;;;17.58;38.73;101446.13;4969136;28;45333;-62
2023/06/02 06:39:24;;;;;;;;;23.50;17.50;;;;;17.57;38.95;101448.84;4965379;28;45376;-61
2023/06/02 06:41:49;;;;;;;;;17.25;14.50;;;;;17.58;38.79;101450.56;4969823;28;52620;-60
2023/06/02 06:44:15;;;;;;;;;22.25;21.25;;;;;17.59;38.82;101447.88;4969540;28;45803;-59
2023/06/02 06:46:40;;;;;;;;;19.25;17.25;;;;;17.61;39.01;101451.34;4969951;28;45434;-60
2023/06/02 06:49:06;;;;;;;;;18.50;18.25;;;;;17.62;38.74;101452.22;4969376;28;46248;-61
2023/06/02 06:51:31;;;;;;;;;17.50;15.00;;;;;17.67;38.77;101456.47;4968961;28;45647;-60
2023/06/02 06:53:56;;;;;;;;;21.50;17.50;;;;;17.69;39.01;101448.44;4985142;28;45481;-61
2023/06/02 06:56:22;;;;;;;;;21.25;16.00;;;;;17.68;39.08;101444.94;4968518;28;45507;-60
2023/06/02 06:58:47;;;;;;;;;17.75;16.00;;;;;17.76;38.81;101447.31;4970105;28;46218;-60
2023/06/02 07:01:13;;;;;;;;;18.00;14.50;;;;;17.77;38.74;101449.03;4970093;28;46006;-60
2023/06/02 07:03:39;;;;;;;;;18.50;16.25;;;;;17.82;38.96;101452.44;4971478;28;45413;-60
2023/06/02 07:06:04;;;;;;;;;19.50;14.75;;;;;17.80;38.68;101446.28;4969459;28;45295;-60
2023/06/02 07:08:30;;;;;;;;;18.25;14.50;;;;;17.85;38.82;101460.31;4970491;28;45987;-61
2023/06/02 07:10:56;;;;;;;;;19.25;15.75;;;;;17.89;38.76;101454.91;4969065;28;45373;-61
2023/06/02 07:13:21;;;;;;;;;21.00;18.25;;;;;17.91;38.50;101447.72;4970705;28;45453;-61
2023/06/02 07:15:48;;;;;;;;;18.50;17.75;;;;;17.93;38.80;101468.00;4969549;28;45418;-60
2023/06/02 07:18:13;;;;;;;;;19.50;17.50;;;;;17.95;38.60;101452.91;4969990;28;46320;-60
2023/06/02 07:20:39;;;;;;;;;23.75;21.00;;;;;17.95;38.75;101452.03;4970049;28;45362;-60
2023/06/02 07:23:04;;;;;;;;;19.25;17.75;;;;;17.98;38.66;101443.97;4959398;28;45540;-60
2023/06/02 07:25:29;;;;;;;;;21.75;20.50;;;;;17.98;38.90;101455.47;4960460;28;45184;-66
2023/06/02 07:27:55;;;;;;;;;19.00;17.50;;;;;18.00;38.82;101444.81;4960327;28;45290;-62
2023/06/02 07:30:21;;;;;;;;;18.25;16.50;;;;;18.02;38.74;101448.25;4960462;28;45391;-61
2023/06/02 07:32:46;;;;;;;;;21.75;15.50;;;;;18.01;38.62;101455.38;4960615;28;45171;-61
2023/06/02 07:35:11;;;;;;;;;14.75;14.50;;;;;18.03;38.88;101457.97;4961623;28;46514;-62
2023/06/02 07:37:37;;;;;;;;;22.00;15.75;;;;;17.98;38.50;101443.97;4965157;28;45408;-61
2023/06/02 07:40:02;;;;;;;;;16.25;13.50;;;;;18.03;38.37;101452.66;4960340;28;45326;-63
2023/06/02 07:42:28;;;;;;;;;16.00;15.00;;;;;18.03;38.70;101453.50;4960371;28;45291;-62
2023/06/02 07:44:54;;;;;;;;;22.00;17.75;;;;;18.03;38.46;101448.19;4958801;28;45551;-62
2023/06/02 07:47:20;;;;;;;;;20.00;16.75;;;;;18.05;38.50;101453.50;4960084;28;46432;-62
2023/06/02 07:49:45;;;;;;;;;16.75;14.00;;;;;18.05;38.68;101448.16;4958437;28;45468;-61
2023/06/02 07:52:10;;;;;;;;;20.75;18.50;;;;;18.07;38.71;101454.28;4960425;28;45298;-62
2023/06/02 07:54:36;;;;;;;;;13.25;13.00;;;;;18.06;38.43;101452.53;4960039;28;50308;-65
2023/06/02 07:57:01;;;;;;;;;15.00;14.00;;;;;18.12;38.50;101459.44;4959927;28;46215;-65
2023/06/02 07:59:26;;;;;;;;;17.75;15.25;;;;;18.15;38.47;101457.56;4960031;28;45283;-64
2023/06/02 08:01:52;;;;;;;;;12.75;12.50;;;;;18.17;38.50;101465.47;4960255;28;45318;-64
2023/06/02 08:04:17;;;;;;;;;19.00;16.50;;;;;18.18;39.04;101461.91;4974633;28;45298;-64
2023/06/02 08:06:43;;;;;;;;;18.00;15.75;;;;;18.22;38.62;101458.19;4968670;28;46114;-64
2023/06/02 08:09:08;;;;;;;;;18.50;15.50;;;;;18.26;38.73;101454.50;4945822;28;46047;-64
2023/06/02 08:11:34;;;;;;;;;18.00;15.75;;;;;18.28;38.48;101451.81;4963234;28;45441;-64
2023/06/02 08:13:59;;;;;;;;;17.75;15.00;;;;;18.30;38.53;101460.59;4963170;28;45340;-64
2023/06/02 08:16:25;;;;;;;;;22.75;16.25;;;;;18.34;38.69;101451.59;4987553;28;45487;-64
2023/06/02 08:18:50;;;;;;;;;17.25;14.50;;;;;18.37;38.41;101448.81;4963688;28;45147;-64
2023/06/02 08:21:16;;;;;;;;;19.50;17.00;;;;;18.40;38.52;101450.50;4978396;28;45276;-64
2023/06/02 08:23:41;;;;;;;;;16.25;15.00;;;;;18.40;38.50;101445.19;4978316;28;45605;-64
2023/06/02 08:26:06;;;;;;;;;17.75;16.75;;;;;18.37;38.43;101432.00;4963140;28;45448;-64
2023/06/02 08:28:33;;;;;;;;;22.00;19.00;;;;;18.41;38.74;101446.91;4962919;28;45228;-65
2023/06/02 08:31:01;;;;;;;;;16.50;15.00;;;;;18.48;38.52;101443.97;4963362;28;45445;-65
2023/06/02 08:33:27;;;;;;;;;19.00;16.00;;;;;18.51;38.37;101445.66;4962934;28;45294;-64
2023/06/02 08:35:53;;;;;;;;;15.75;15.00;;;;;18.51;38.66;101438.56;4962717;28;45669;-69
2023/06/02 08:38:19;;;;;;;;;16.50;15.75;;;;;18.54;38.40;101440.25;4963023;28;45447;-68
2023/06/02 08:40:46;;;;;;;;;16.50;14.50;;;;;18.55;38.27;101443.75;4963053;28;45305;-65
2023/06/02 08:43:13;;;;;;;;;15.75;14.75;;;;;18.51;38.51;101429.69;4968527;28;45519;-64
2023/06/02 08:45:49;;;;;;;;;16.00;13.75;;;;;18.62;38.31;101445.28;4982019;28;45315;-64
2023/06/02 08:48:16;;;;;;;;;15.25;13.25;;;;;18.64;38.35;101444.28;4982632;28;45294;-64
2023/06/02 08:50:47;;;;;;;;;14.00;14.00;;;;;18.68;38.24;101450.38;4982297;28;45495;-64
2023/06/02 08:53:15;;;;;;;;;16.50;16.00;;;;;18.72;38.53;101443.16;4982443;28;45148;-64
2023/06/02 08:55:41;;;;;;;;;15.00;13.50;;;;;18.73;38.53;101431.56;4982117;28;46302;-64
2023/06/02 08:58:10;;;;;;;;;15.75;11.25;;;;;18.74;38.23;101428.84;4982356;28;45361;-64
2023/06/02 09:00:37;;;;;;;;;17.00;14.00;;;;;18.82;38.62;101428.56;4982005;28;45223;-64
2023/06/02 09:03:03;;;;;;;;;17.25;16.25;;;;;18.85;38.63;101433.75;4982127;28;45519;-64
2023/06/02 09:05:30;;;;;;;;;12.25;11.25;;;;;18.85;38.36;101431.09;4978234;28;45949;-64
2023/06/02 09:08:14;;;;;;;;;12.25;12.25;;;;;18.84;38.17;101427.56;4962712;28;45412;-64
2023/06/02 09:10:41;;;;;;;;;15.75;15.00;;;;;18.90;38.35;101436.25;4962421;28;45346;-64
2023/06/02 09:13:27;;;;;;;;;15.25;14.25;;;;;18.93;38.16;101433.50;4962654;28;45376;-64
2023/06/02 09:16:00;;;;;;;;;14.50;14.25;;;;;18.97;38.31;101432.47;4977842;28;45519;-64
2023/06/02 09:18:27;;;;;;;;;13.00;11.25;;;;;18.98;38.24;101431.50;4968214;28;45461;-64
2023/06/02 09:20:53;;;;;;;;;12.00;12.00;;;;;19.02;38.37;101427.84;4962597;28;45345;-64
2023/06/02 09:23:19;;;;;;;;;15.25;11.75;;;;;19.05;38.25;101430.34;4962284;28;45565;-64
2023/06/02 09:25:45;;;;;;;;;14.75;13.75;;;;;19.05;38.08;101425.03;4962283;28;45484;-64
2023/06/02 09:28:11;;;;;;;;;13.25;10.50;;;;;19.10;38.37;101420.38;4962061;28;45177;-64
2023/06/02 09:30:38;;;;;;;;;16.00;13.50;;;;;19.14;38.20;101432.69;4962159;28;45509;-64
2023/06/02 09:33:08;;;;;;;;;16.25;15.75;;;;;19.17;38.51;101419.22;4976985;28;45569;-64
2023/06/02 09:35:36;;;;;;;;;15.25;15.25;;;;;19.16;37.95;101420.16;4962199;28;45339;-64
2023/06/02 09:38:07;;;;;;;;;14.75;13.50;;;;;19.28;38.15;101428.59;4961974;28;45208;-64
2023/06/02 09:40:34;;;;;;;;;13.50;13.50;;;;;19.30;38.27;101414.28;4977093;28;45350;-64
2023/06/02 09:43:05;;;;;;;;;16.00;14.00;;;;;19.37;38.22;101420.25;4960792;28;45335;-64
2023/06/02 09:45:32;;;;;;;;;14.50;13.00;;;;;19.42;38.20;101422.69;4961715;28;46345;-64
2023/06/02 09:47:58;;;;;;;;;14.50;14.50;;;;;19.47;38.38;101434.03;4960515;28;45839;-64
2023/06/02 09:50:35;;;;;;;;;12.25;12.25;;;;;19.53;37.97;101427.59;4962014;28;45346;-64
2023/06/02 09:53:06;;;;;;;;;19.00;14.50;;;;;19.57;37.94;101419.44;4961915;28;45376;-64
2023/06/02 09:55:32;;;;;;;;;17.25;13.50;;;;;19.61;37.92;101415.69;4961637;28;45353;-64
2023/06/02 09:57:58;;;;;;;;;13.50;13.50;;;;;19.73;38.27;101427.63;4961998;28;45314;-64
2023/06/02 10:00:24;;;;;;;;;13.50;13.50;;;;;19.83;37.88;101427.28;4961508;28;45325;-64
2023/06/02 10:02:50;;;;;;;;;11.50;11.50;;;;;19.88;37.85;101431.50;4965551;28;45547;-64
2023/06/02 10:05:17;;;;;;;;;13.75;12.00;;;;;19.94;37.85;101425.91;4979440;28;46063;-64
2023/06/02 10:07:58;;;;;;;;;12.75;12.75;;;;;20.05;37.83;101427.22;4961929;28;45367;-64
2023/06/02 10:10:48;;;;;;;;;13.75;11.75;;;;;20.13;38.25;101420.63;4961376;28;45370;-64
2023/06/02 10:13:54;;;;;;;;;12.50;12.50;;;;;20.23;37.74;101418.44;4976479;28;45456;-64
2023/06/02 10:16:53;;;;;;;;;12.50;12.50;;;;;20.39;38.15;101412.41;4984354;28;47042;-64
2023/06/02 10:19:23;;;;;;;;;13.75;12.25;;;;;20.54;37.96;101410.84;4961175;28;45354;-64
2023/06/02 10:22:13;;;;;;;;;12.50;11.00;;;;;20.70;37.68;101414.53;4961310;28;45464;-64
2023/06/02 10:24:56;;;;;;;;;17.25;16.25;;;;;20.87;37.68;101403.13;4976265;28;45537;-63
2023/06/02 10:27:30;;;;;;;;;14.50;12.75;;;;;21.07;37.89;101407.50;4961489;28;45349;-63
2023/06/02 10:29:56;;;;;;;;;12.75;12.00;;;;;21.29;37.90;101400.28;4975938;28;45333;-63
2023/06/02 10:32:24;;;;;;;;;14.00;13.50;;;;;21.54;38.00;101408.78;4961461;28;45391;-63
2023/06/02 10:34:54;;;;;;;;;11.75;11.75;;;;;21.88;37.88;101408.94;4961100;28;45468;-63
2023/06/02 10:37:22;;;;;;;;;15.00;9.25;;;;;22.25;38.37;101407.03;4961071;28;46623;-60
2023/06/02 10:39:48;;;;;;;;;12.50;12.00;;;;;22.72;38.43;101403.63;4960936;28;45271;-59
2023/06/02 10:42:15;;;;;;;;;15.00;12.50;;;;;23.17;38.58;101393.13;4961381;28;45310;-59
2023/06/02 10:44:41;;;;;;;;;12.25;11.75;;;;;23.77;38.48;101415.59;4960827;28;45193;-60
2023/06/02 10:47:18;;;;;;;;;9.00;8.50;;;;;24.38;38.71;101412.88;4961019;28;46213;-62
2023/06/02 10:49:57;;;;;;;;;12.25;12.25;;;;;25.02;38.26;101399.00;4968583;28;45371;-61
2023/06/02 10:52:23;;;;;;;;;13.00;12.75;;;;;25.59;38.09;101400.66;4969615;28;45500;-61
2023/06/02 10:55:06;;;;;;;;;10.00;10.00;;;;;26.32;37.90;101409.19;4968881;28;45452;-62
2023/06/02 10:57:57;;;;;;;;;13.00;13.00;;;;;26.99;38.27;101404.47;4969024;28;46369;-62
2023/06/02 11:00:32;;;;;;;;;10.00;7.75;;;;;27.64;38.25;101402.38;4968766;28;45282;-62
2023/06/02 11:02:57;;;;;;;;;18.75;15.50;;;;;28.22;37.86;101403.25;4970197;28;45430;-60
2023/06/02 11:05:24;;;;;;;;;14.50;14.00;;;;;28.81;37.28;101395.91;4970791;28;45479;-63
2023/06/02 11:08:15;;;;;;;;;26.25;22.25;;;;;29.49;37.00;101398.44;4971191;28;48074;-61
2023/06/02 11:10:46;;;;;;;;;12.75;12.75;;;;;30.07;36.78;101402.59;4969802;28;45321;-61